FR-0033 weather

Centre Hospitalier Heliport
Troyes, Burgundy, France

Public forecast

Using degrees Celsius for public forecast. Weather courtesy of forecast.io.

METAR (pilot weather report)

Closest report is Nevers-Fourchambault Airport, 41.7 nm (77.2 km) WSW. Retrieved 2019/09/23 14:30 UTC (0 seconds ago):

LFQG 231430Z AUTO 22005KT 180V280 9999 SCT048 BKN070 21/10 Q1017

TAF (pilot weather forecast)

Forecast is more than 12 hours old.

Closest forecast is Dijon-Bourgogne Airport, 41.7 nm (77.3 km) E. Retrieved 2015/06/01 00:11 UTC (4 years ago):

TAF LFSD 010600Z 0100/0124 CNL